^^
Station Historical Data
Daily Summary for June 3, 2017 Units:  Metric    English   Both
« Previous Day
Next Day »
Daily Weekly Monthly Yearly Custom
  High: Low: Average:
Temperature: 28.4 °C 12.2 °C 19.7 °C
Dew Point: 10.9 °C -1.1 °C 3.8 °C
Humidity: 78% 17% 40%
Wind Speed: 28.8km/h 0km/h 7.9km/h
Wind Gust: 38.6km/h - -
Wind- - West
Pressure: 1016.5 hPa 1012.4 hPa -
Precipitation: 0 mm    
Historical Graphs
 
 
Tabular Data for June 3, 2017
Time Temperature Dew Point Pressure Wind Wind Speed Wind Gust Humidity Rainfall Rate (Hourly) solar Conditions
04:37 16.4 °C -0.3 °C 1015.1 hPa Calm   9.7 km/h 32% 0 mm 0.0 W/m2
04:47 16.3 °C 0 °C 1015.1 hPa Calm     33% 0 mm 0.0 W/m2
04:52 16.2 °C -0.1 °C 1015.1 hPa North 6.4 km/h 6.4 km/h 33% 0 mm 0.0 W/m2
04:57 16.2 °C -0.1 °C 1015.1 hPa Calm   6.4 km/h 33% 0 mm 0.0 W/m2
05:07 16.3 °C 0 °C 1015.1 hPa Calm   9.7 km/h 33% 0 mm 0.0 W/m2
05:13 16.4 °C 0.1 °C 1015.1 hPa Calm   3.2 km/h 33% 0 mm 0.0 W/m2
05:18 16.4 °C -0.3 °C 1015.1 hPa Calm     32% 0 mm 0.0 W/m2
05:23 16.2 °C -0.1 °C 1015.1 hPa Calm     33% 0 mm 0.0 W/m2
05:28 15.8 °C -0.4 °C 1015.1 hPa Calm   3.2 km/h 33% 0 mm 0.0 W/m2
05:34 15.8 °C 0 °C 1015.1 hPa Calm   1.6 km/h 34% 0 mm 0.0 W/m2
05:39 16.1 °C -0.2 °C 1015.1 hPa Calm   1.6 km/h 33% 0 mm 0.0 W/m2
05:44 16.3 °C 0 °C 1015.5 hPa Calm     33% 0 mm 0.0 W/m2
05:49 16.1 °C -0.2 °C 1015.5 hPa Calm     33% 0 mm 0.0 W/m2
05:55 15.4 °C -0.8 °C 1015.5 hPa Calm     33% 0 mm 0.0 W/m2
06:00 14.6 °C -0.7 °C 1015.5 hPa Calm     35% 0 mm 0.0 W/m2
06:06 13.7 °C -1.1 °C 1015.5 hPa North 1.4 km/h 1.6 km/h 36% 0 mm 0.0 W/m2
06:11 13.1 °C -0.9 °C 1015.5 hPa Calm   11.3 km/h 38% 0 mm 0.0 W/m2
06:16 12.8 °C -0.8 °C 1015.5 hPa Calm     39% 0 mm 0.0 W/m2
06:26 12.6 °C -1 °C 1015.5 hPa Calm   3.2 km/h 39% 0 mm 0.0 W/m2
06:31 12.3 °C -0.9 °C 1015.5 hPa North 9.7 km/h 12.9 km/h 40% 0 mm 0.0 W/m2
06:37 12.2 °C -1 °C 1015.5 hPa North 3.2 km/h 9.7 km/h 40% 0 mm 5.0 W/m2
06:47 12.5 °C -0.7 °C 1015.5 hPa North 6.4 km/h 6.4 km/h 40% 0 mm 11.0 W/m2
06:53 12.7 °C -0.6 °C 1015.8 hPa Calm   9.7 km/h 40% 0 mm 14.0 W/m2
07:01 13.2 °C -0.5 °C 1015.8 hPa Calm   8 km/h 39% 0 mm 18.0 W/m2
07:20 13.7 °C -0.4 °C 1015.8 hPa Calm     38% 0 mm 25.0 W/m2
07:30 14.3 °C 0.2 °C 1015.8 hPa Calm   3.2 km/h 38% 0 mm 98.0 W/m2
07:41 15.5 °C 0.1 °C 1015.8 hPa North 1.4 km/h 8 km/h 35% 0 mm 132.0 W/m2
07:46 16.4 °C 0.5 °C 1016.1 hPa Calm     34% 0 mm 171.0 W/m2
08:03 17.9 °C 0.5 °C 1016.1 hPa Calm     31% 0 mm 227.0 W/m2
09:00 20.1 °C 0.5 °C 1016.1 hPa North 1.4 km/h 19.3 km/h 27% 0 mm 378.0 W/m2
09:07 20.3 °C 0.7 °C 1016.1 hPa North 14.3 km/h 19.3 km/h 27% 0 mm 401.0 W/m2
09:22 20.6 °C 0.9 °C 1016.1 hPa North 7.9 km/h 14.5 km/h 27% 0 mm 424.0 W/m2
09:32 21.3 °C 1 °C 1015.8 hPa North 9.7 km/h 17.7 km/h 26% 0 mm 455.0 W/m2
09:47 21.8 °C 0.9 °C 1015.8 hPa North 7.9 km/h 22.5 km/h 25% 0 mm 485.0 W/m2
10:06 22.1 °C 1.1 °C 1015.5 hPa North 7.9 km/h 20.9 km/h 25% 0 mm 510.0 W/m2
10:17 22.6 °C 1 °C 1015.5 hPa North 1.4 km/h 19.3 km/h 24% 0 mm 526.0 W/m2
10:26 22.8 °C 0.6 °C 1015.5 hPa North 16.3 km/h 22.5 km/h 23% 0 mm 540.0 W/m2
10:34 23.5 °C 0.6 °C 1015.1 hPa North 11.1 km/h 22.5 km/h 22% 0 mm 550.0 W/m2
12:33 26.8 °C 1.2 °C 1013.8 hPa North 9.7 km/h 14.5 km/h 19% 0 mm 582.0 W/m2
12:38 26.6 °C 1.1 °C 1013.8 hPa North 7.9 km/h 20.9 km/h 19% 0 mm 580.0 W/m2
12:51 26.7 °C 1.2 °C 1013.8 hPa NNW 24.1 km/h 25.7 km/h 19% 0 mm 573.0 W/m2
13:04 26.8 °C 1.2 °C 1013.4 hPa Calm   19.3 km/h 19% 0 mm 548.0 W/m2
13:09 26.8 °C 1.2 °C 1013.4 hPa NNW 6.4 km/h 12.9 km/h 19% 0 mm 543.0 W/m2
13:14 27 °C 1.4 °C 1013.4 hPa Calm   9.7 km/h 19% 0 mm 536.0 W/m2
13:24 27.3 °C 0.9 °C 1013.1 hPa Calm   9.7 km/h 18% 0 mm 522.0 W/m2
13:39 27.7 °C 1.2 °C 1013.1 hPa NNW 13 km/h 20.9 km/h 18% 0 mm 496.0 W/m2
13:49 27.7 °C 1.2 °C 1012.8 hPa Calm   3.2 km/h 18% 0 mm 476.0 W/m2
13:59 27.7 °C 0.4 °C 1012.8 hPa NNW 13 km/h 19.3 km/h 17% 0 mm 454.0 W/m2
14:14 28.4 °C 1 °C 1012.4 hPa NW 19.5 km/h 29 km/h 17% 0 mm 434.0 W/m2
14:32 28.1 °C 0.8 °C 1012.4 hPa WNW 19.5 km/h 29 km/h 17% 0 mm 388.0 W/m2
14:42 28.3 °C 0.9 °C 1012.4 hPa West 14.3 km/h 38.6 km/h 17% 0 mm 366.0 W/m2
14:51 28.4 °C 1 °C 1012.4 hPa West 17.7 km/h 22.5 km/h 17% 0 mm 341.0 W/m2
15:06 28.2 °C 0.8 °C 1012.4 hPa West 7.9 km/h 19.3 km/h 17% 0 mm 309.0 W/m2
15:19 28.3 °C 0.9 °C 1012.4 hPa West 19.5 km/h 25.7 km/h 17% 0 mm 257.0 W/m2
15:25 28.2 °C 0.8 °C 1012.4 hPa West 28.8 km/h 29 km/h 17% 0 mm 241.0 W/m2
15:30 28.1 °C 0.8 °C 1012.8 hPa West 19.5 km/h 24.1 km/h 17% 0 mm 229.0 W/m2
15:41 27.8 °C 0.5 °C 1012.8 hPa West 25.9 km/h 25.9 km/h 17% 0 mm 195.0 W/m2
15:50 27.6 °C 1.1 °C 1012.8 hPa WSW 22.7 km/h 30.6 km/h 18% 0 mm 158.0 W/m2
15:55 27.6 °C 1.1 °C 1012.8 hPa WSW 17.7 km/h 20.9 km/h 18% 0 mm 139.0 W/m2
16:00 27.5 °C 1.1 °C 1012.8 hPa West 17.7 km/h 22.5 km/h 18% 0 mm 120.0 W/m2
16:05 27.4 °C 1 °C 1012.8 hPa West 22.7 km/h 22.7 km/h 18% 0 mm 102.0 W/m2
16:10 27.2 °C 0.8 °C 1012.8 hPa West 13 km/h 20.9 km/h 18% 0 mm 90.0 W/m2
16:15 27.1 °C 0.7 °C 1012.8 hPa West 17.7 km/h 22.5 km/h 18% 0 mm 74.0 W/m2
16:40 26.4 °C 2.3 °C 1013.1 hPa West 22.7 km/h 27.4 km/h 21% 0 mm 16.0 W/m2
16:50 26 °C 2 °C 1013.4 hPa West 20.9 km/h 30.6 km/h 21% 0 mm 11.0 W/m2
17:05 25.7 °C 2.4 °C 1013.4 hPa West 19.5 km/h 19.5 km/h 22% 0 mm 0.0 W/m2
17:12 25.6 °C 2.3 °C 1013.4 hPa West 11.1 km/h 24.1 km/h 22% 0 mm 0.0 W/m2
17:17 25.4 °C 2.1 °C 1013.4 hPa West 11.1 km/h 20.9 km/h 22% 0 mm 0.0 W/m2
18:16 24.3 °C 2.4 °C 1014.4 hPa West 16.3 km/h 19.3 km/h 24% 0 mm 0.0 W/m2
18:30 24.1 °C 2.8 °C 1014.4 hPa West 7.9 km/h 12.9 km/h 25% 0 mm 0.0 W/m2
18:35 24.1 °C 2.8 °C 1014.8 hPa West 9.7 km/h 19.3 km/h 25% 0 mm 0.0 W/m2
18:43 23.8 °C 6.6 °C 1014.8 hPa West 11.1 km/h 20.9 km/h 33% 0 mm 0.0 W/m2
18:50 21.6 °C 8.8 °C 1015.1 hPa West 14.3 km/h 17.7 km/h 44% 0 mm 0.0 W/m2
19:08 20.1 °C 9.1 °C 1015.1 hPa West 4.7 km/h 8 km/h 49% 0 mm 0.0 W/m2
19:19 19.6 °C 9.2 °C 1015.5 hPa West 9.7 km/h 9.7 km/h 51% 0 mm 0.0 W/m2
19:28 19.2 °C 9.4 °C 1015.5 hPa West 7.9 km/h 9.7 km/h 53% 0 mm 0.0 W/m2
19:36 19 °C 9.2 °C 1015.5 hPa West 7.9 km/h 8 km/h 53% 0 mm 0.0 W/m2
19:51 18.4 °C 9.2 °C 1015.5 hPa West 7.9 km/h 9.7 km/h 55% 0 mm 0.0 W/m2
20:06 18.1 °C 9.2 °C 1015.5 hPa West 6.4 km/h 8 km/h 56% 0 mm 0.0 W/m2
20:14 17.9 °C 9 °C 1015.5 hPa West 4.7 km/h 6.4 km/h 56% 0 mm 0.0 W/m2
20:22 17.7 °C 9.1 °C 1015.5 hPa West 6.4 km/h 8 km/h 57% 0 mm 0.0 W/m2
21:27 17.1 °C 9.5 °C 1015.8 hPa West 6.4 km/h 11.3 km/h 61% 0 mm 0.0 W/m2
21:32 16.9 °C 9.6 °C 1016.1 hPa West 6.4 km/h 9.7 km/h 62% 0 mm 0.0 W/m2
21:37 16.8 °C 9.7 °C 1016.1 hPa West 7.9 km/h 9.7 km/h 63% 0 mm 0.0 W/m2
21:42 16.5 °C 9.7 °C 1016.1 hPa West 9.7 km/h 9.7 km/h 64% 0 mm 0.0 W/m2
21:48 16.3 °C 9.7 °C 1016.1 hPa West 4.7 km/h 8 km/h 65% 0 mm 0.0 W/m2
21:53 16.1 °C 10 °C 1016.1 hPa West 11.1 km/h 14.5 km/h 67% 0 mm 0.0 W/m2
21:58 16.1 °C 10.2 °C 1016.1 hPa West 11.1 km/h 16.1 km/h 68% 0 mm 0.0 W/m2
22:03 16 °C 10.3 °C 1016.1 hPa West 14.3 km/h 17.7 km/h 69% 0 mm 0.0 W/m2
22:08 15.9 °C 10.4 °C 1016.1 hPa West 9.7 km/h 14.5 km/h 70% 0 mm 0.0 W/m2
22:13 15.8 °C 10.3 °C 1016.1 hPa West 13 km/h 16.1 km/h 70% 0 mm 0.0 W/m2
22:23 15.6 °C 10.4 °C 1016.1 hPa West 14.3 km/h 14.5 km/h 71% 0 mm 0.0 W/m2
22:28 15.5 °C 10.5 °C 1016.1 hPa West 11.1 km/h 12.9 km/h 72% 0 mm 0.0 W/m2
22:33 15.4 °C 10.4 °C 1016.1 hPa West 9.7 km/h 12.9 km/h 72% 0 mm 0.0 W/m2
22:39 15.3 °C 10.5 °C 1016.1 hPa West 11.1 km/h 12.9 km/h 73% 0 mm 0.0 W/m2
22:44 15.2 °C 10.4 °C 1016.1 hPa West 13 km/h 14.5 km/h 73% 0 mm 0.0 W/m2
22:54 15.1 °C 10.9 °C 1016.1 hPa West 14.3 km/h 14.5 km/h 76% 0 mm 0.0 W/m2
22:59 14.9 °C 10.5 °C 1016.5 hPa West 11.1 km/h 12.9 km/h 75% 0 mm 0.0 W/m2
23:04 14.9 °C 10.5 °C 1016.5 hPa West 9.7 km/h 12.9 km/h 75% 0 mm 0.0 W/m2
23:09 14.8 °C 10.4 °C 1016.1 hPa West 6.4 km/h 9.7 km/h 75% 0 mm 0.0 W/m2
23:14 14.8 °C 10.6 °C 1016.1 hPa West 4.7 km/h 8 km/h 76% 0 mm 0.0 W/m2
23:19 14.7 °C 10.5 °C 1016.1 hPa West 3.2 km/h 6.4 km/h 76% 0 mm 0.0 W/m2
23:24 14.6 °C 10.4 °C 1016.1 hPa Calm     76% 0 mm 0.0 W/m2
23:29 14.5 °C 10.3 °C 1016.1 hPa Calm     76% 0 mm 0.0 W/m2
23:34 14.2 °C 9.8 °C 1016.1 hPa Calm     75% 0 mm 0.0 W/m2
23:40 14 °C 9.8 °C 1016.1 hPa Calm     76% 0 mm 0.0 W/m2
23:45 13.8 °C 9.6 °C 1015.8 hPa Calm     76% 0 mm 0.0 W/m2
23:50 13.6 °C 9.6 °C 1016.1 hPa Calm     77% 0 mm 0.0 W/m2
23:55 13.5 °C 9.7 °C 1015.8 hPa Calm     78% 0 mm 0.0 W/m2
Canyon Roadhouse, Fishriver Canyon, Namibia
Compliments of Weather Underground - 2.25 mb